createdAt,value
2019-02-25T00:02:25.831Z,5.73
2019-02-25T00:04:56.641Z,5.57
2019-02-25T00:07:27.300Z,5.33
2019-02-25T00:09:59.658Z,5.37
2019-02-25T00:12:31.358Z,5.30
2019-02-25T00:15:03.170Z,5.80
2019-02-25T00:17:33.875Z,5.57
2019-02-25T00:20:04.656Z,5.80
2019-02-25T00:22:35.383Z,5.60
2019-02-25T00:25:06.523Z,5.90
2019-02-25T00:27:38.315Z,6.50
2019-02-25T00:30:09.150Z,6.77
2019-02-25T00:32:39.885Z,5.93
2019-02-25T00:35:10.423Z,5.87
2019-02-25T00:37:41.088Z,6.07
2019-02-25T00:40:14.275Z,6.57
2019-02-25T00:42:44.957Z,5.50
2019-02-25T00:45:15.780Z,5.50
2019-02-25T00:47:46.584Z,6.17
2019-02-25T00:50:17.157Z,5.60
2019-02-25T00:52:47.761Z,5.90
2019-02-25T00:55:18.339Z,5.40
2019-02-25T00:57:48.923Z,5.47
2019-02-25T01:00:19.853Z,5.77
2019-02-25T01:02:52.196Z,5.40
2019-02-25T01:05:24.577Z,5.73
2019-02-25T01:07:55.347Z,5.30
2019-02-25T01:10:26.014Z,5.83
2019-02-25T01:12:56.550Z,5.87
2019-02-25T01:15:27.159Z,5.50
2019-02-25T01:18:00.016Z,5.53
2019-02-25T01:20:30.774Z,6.03
2019-02-25T01:23:01.312Z,4.67
2019-02-25T01:25:31.894Z,4.70
2019-02-25T01:28:02.443Z,4.90
2019-02-25T01:30:33.154Z,5.03
2019-02-25T01:33:05.506Z,4.97
2019-02-25T01:35:37.205Z,5.30
2019-02-25T01:38:07.756Z,4.97
2019-02-25T01:40:38.307Z,5.33
2019-02-25T01:43:08.852Z,5.40
2019-02-25T01:45:39.444Z,4.80
2019-02-25T01:48:09.992Z,4.83
2019-02-25T01:50:42.379Z,5.37
2019-02-25T01:53:13.011Z,5.30
2019-02-25T01:55:43.688Z,5.63
2019-02-25T01:58:15.273Z,5.90
2019-02-25T02:00:45.873Z,5.00
2019-02-25T02:03:16.497Z,4.87
2019-02-25T02:05:47.078Z,4.47
2019-02-25T02:08:17.731Z,4.67
2019-02-25T02:10:48.261Z,5.00
2019-02-25T02:13:18.843Z,4.50
2019-02-25T02:15:50.684Z,4.43
2019-02-25T02:18:21.282Z,4.60
2019-02-25T02:20:51.828Z,5.00
2019-02-25T02:23:22.530Z,4.83
2019-02-25T02:25:53.082Z,4.77
2019-02-25T02:28:23.719Z,4.77
2019-02-25T02:30:55.478Z,4.93
2019-02-25T02:33:28.526Z,4.73
2019-02-25T02:35:59.121Z,4.90
2019-02-25T02:38:29.705Z,4.50
2019-02-25T02:41:00.267Z,4.60
2019-02-25T02:43:30.868Z,5.03
2019-02-25T02:46:24.412Z,4.43
2019-02-25T02:49:01.269Z,4.83
2019-02-25T02:51:31.830Z,4.70
2019-02-25T02:54:03.439Z,4.80
2019-02-25T02:56:35.209Z,4.50
2019-02-25T02:59:07.080Z,3.90
2019-02-25T03:01:37.744Z,4.10
2019-02-25T03:04:09.415Z,3.70
2019-02-25T03:06:40.000Z,4.73
2019-02-25T03:09:11.547Z,4.53
2019-02-25T03:11:43.898Z,4.33
2019-02-25T03:14:14.483Z,4.13
2019-02-25T03:16:45.027Z,4.33
2019-02-25T03:19:15.675Z,4.40
2019-02-25T03:21:46.212Z,4.27
2019-02-25T03:24:17.899Z,4.17
2019-02-25T03:26:49.903Z,4.50
2019-02-25T03:29:20.590Z,4.30
2019-02-25T03:31:51.135Z,4.23
2019-02-25T03:34:21.848Z,4.30
2019-02-25T03:36:53.848Z,4.30
2019-02-25T03:39:24.557Z,4.17
2019-02-25T03:41:55.106Z,4.30
2019-02-25T03:44:26.858Z,4.60
2019-02-25T03:47:00.696Z,4.27
2019-02-25T03:49:31.300Z,4.37
2019-02-25T03:52:01.937Z,3.93
2019-02-25T03:54:32.513Z,4.13
2019-02-25T03:57:03.321Z,4.13
2019-02-25T03:59:33.955Z,4.87
2019-02-25T04:02:04.597Z,4.23
2019-02-25T04:04:35.396Z,4.40
2019-02-25T04:07:07.056Z,3.73
2019-02-25T04:09:37.632Z,4.00
2019-02-25T04:12:09.304Z,3.67
2019-02-25T04:14:39.841Z,3.90
2019-02-25T04:17:12.006Z,3.90
2019-02-25T04:19:42.576Z,3.50
2019-02-25T04:22:13.147Z,3.57
2019-02-25T04:24:43.669Z,3.83
2019-02-25T04:27:14.251Z,3.57
2019-02-25T04:29:44.825Z,3.50
2019-02-25T04:32:15.456Z,3.73
2019-02-25T04:34:47.801Z,3.80
2019-02-25T04:37:20.047Z,3.87
2019-02-25T04:39:50.592Z,4.10
2019-02-25T04:42:21.150Z,3.80
2019-02-25T04:44:51.712Z,3.43
2019-02-25T04:47:24.129Z,3.53
2019-02-25T04:49:56.192Z,3.63
2019-02-25T04:52:26.810Z,3.50
2019-02-25T04:54:57.442Z,3.53
2019-02-25T04:57:28.001Z,3.63
2019-02-25T05:00:00.432Z,3.30
2019-02-25T05:02:31.103Z,3.53
2019-02-25T05:05:02.796Z,3.20
2019-02-25T05:07:33.377Z,3.43
2019-02-25T05:10:04.263Z,3.43
2019-02-25T05:12:34.849Z,4.13
2019-02-25T05:15:07.052Z,3.73
2019-02-25T05:17:38.748Z,3.00
2019-02-25T05:20:09.433Z,3.87
2019-02-25T05:22:40.007Z,3.53
2019-02-25T05:25:10.733Z,3.80
2019-02-25T05:27:41.370Z,3.20
2019-02-25T05:30:12.682Z,3.70
2019-02-25T05:32:44.695Z,3.50
2019-02-25T05:35:15.750Z,3.53
2019-02-25T05:37:46.385Z,3.73
2019-02-25T05:40:17.228Z,3.53
2019-02-25T05:42:47.886Z,3.87
2019-02-25T05:45:19.548Z,3.60
2019-02-25T05:47:50.138Z,3.50
2019-02-25T05:50:21.031Z,3.50
2019-02-25T05:52:51.705Z,3.33
2019-02-25T05:55:22.302Z,3.30
2019-02-25T05:57:52.865Z,2.90
2019-02-25T06:00:25.648Z,2.87
2019-02-25T06:02:56.323Z,2.90
2019-02-25T06:05:26.896Z,2.87
2019-02-25T06:07:57.539Z,3.13
2019-02-25T06:10:28.139Z,3.53
2019-02-25T06:12:58.738Z,3.20
2019-02-25T06:15:29.319Z,3.00
2019-02-25T06:17:59.858Z,3.73
2019-02-25T06:20:30.538Z,3.37
2019-02-25T06:23:03.057Z,3.00
2019-02-25T06:25:33.644Z,3.03
2019-02-25T06:28:04.291Z,3.57
2019-02-25T06:30:36.398Z,3.47
2019-02-25T06:33:07.147Z,3.10
2019-02-25T06:35:37.969Z,3.63
2019-02-25T06:38:11.957Z,2.83
2019-02-25T06:40:42.588Z,3.10
2019-02-25T06:43:15.391Z,3.43
2019-02-25T06:45:47.678Z,3.67
2019-02-25T06:48:18.337Z,2.93
2019-02-25T06:50:49.402Z,3.30
2019-02-25T06:53:20.965Z,2.90
2019-02-25T06:55:51.580Z,3.20
2019-02-25T06:58:23.223Z,3.00
2019-02-25T07:00:55.180Z,3.10
2019-02-25T07:03:25.769Z,3.00
2019-02-25T07:06:18.460Z,3.13
2019-02-25T07:08:56.432Z,3.20
2019-02-25T07:11:40.217Z,3.27
2019-02-25T07:14:30.239Z,3.53
2019-02-25T07:17:27.610Z,3.67
2019-02-25T07:20:07.909Z,2.93
2019-02-25T07:23:06.752Z,2.93
2019-02-25T07:25:53.746Z,2.97
2019-02-25T07:28:50.640Z,3.27
2019-02-25T07:31:43.004Z,2.60
2019-02-25T07:34:31.354Z,3.23
2019-02-25T07:37:17.351Z,2.90
2019-02-25T07:40:10.444Z,3.17
2019-02-25T07:42:58.417Z,2.90
2019-02-25T07:45:48.009Z,2.87
2019-02-25T07:48:28.650Z,3.30
2019-02-25T07:51:07.753Z,3.57
2019-02-25T07:54:12.142Z,3.60
2019-02-25T07:57:01.446Z,3.27
2019-02-25T07:59:54.082Z,3.70
2019-02-25T08:02:54.798Z,4.03
2019-02-25T08:05:44.435Z,3.80
2019-02-25T08:08:37.093Z,3.73
2019-02-25T08:11:25.412Z,3.50
2019-02-25T08:14:14.522Z,3.33
2019-02-25T08:17:04.589Z,3.33
2019-02-25T08:19:52.938Z,3.23
2019-02-25T08:22:41.266Z,3.10
2019-02-25T08:25:30.897Z,2.53
2019-02-25T08:28:34.605Z,2.80
2019-02-25T08:31:14.970Z,3.00
2019-02-25T08:34:18.388Z,2.97
2019-02-25T08:38:09.573Z,2.77
2019-02-25T08:41:27.093Z,3.13
2019-02-25T08:44:19.320Z,2.63
2019-02-25T08:47:11.724Z,2.73
2019-02-25T08:50:03.263Z,2.30
2019-02-25T08:52:35.447Z,2.40
2019-02-25T08:55:07.587Z,2.87
2019-02-25T08:57:38.241Z,2.23
2019-02-25T09:00:12.487Z,2.53
2019-02-25T09:02:44.178Z,2.67
2019-02-25T09:05:15.441Z,2.63
2019-02-25T09:07:47.668Z,2.83
2019-02-25T09:10:18.353Z,2.60
2019-02-25T09:12:50.059Z,3.13
2019-02-25T09:15:22.505Z,3.07
2019-02-25T09:17:50.614Z,2.63
2019-02-25T09:20:21.468Z,2.77
2019-02-25T09:22:54.559Z,2.97
2019-02-25T09:25:25.177Z,3.07
2019-02-25T09:27:56.097Z,3.13
2019-02-25T09:30:27.825Z,3.12
2019-02-25T09:32:58.434Z,3.00
2019-02-25T09:35:29.118Z,2.87
2019-02-25T09:37:59.733Z,2.90
2019-02-25T09:40:30.268Z,3.13
2019-02-25T09:43:02.026Z,3.50
2019-02-25T09:45:32.594Z,3.00
2019-02-25T09:48:03.171Z,3.43
2019-02-25T09:50:33.769Z,2.93
2019-02-25T09:53:04.502Z,3.17
2019-02-25T09:55:36.567Z,3.33
2019-02-25T09:58:07.269Z,3.63
2019-02-25T10:00:38.000Z,3.53
2019-02-25T10:03:08.814Z,3.73
2019-02-25T10:05:39.461Z,3.83
2019-02-25T10:08:11.297Z,3.90
2019-02-25T10:10:42.016Z,3.53
2019-02-25T10:13:15.615Z,3.22
2019-02-25T10:15:49.307Z,3.43
2019-02-25T10:18:21.808Z,3.73
2019-02-25T10:20:52.522Z,3.75
2019-02-25T10:23:23.208Z,3.77
2019-02-25T10:25:53.792Z,4.10
2019-02-25T10:28:26.390Z,3.75
2019-02-25T10:30:56.975Z,3.27
2019-02-25T10:33:27.682Z,3.67
2019-02-25T10:35:58.408Z,4.10
2019-02-25T10:38:29.003Z,4.10
2019-02-25T10:41:00.736Z,4.47
2019-02-25T10:43:34.546Z,4.00
2019-02-25T10:46:06.950Z,4.30
2019-02-25T10:48:38.227Z,3.93
2019-02-25T10:51:09.332Z,3.87
2019-02-25T10:53:40.626Z,4.72
2019-02-25T10:56:25.894Z,3.90
2019-02-25T10:58:57.708Z,4.10
2019-02-25T11:01:28.947Z,3.92
2019-02-25T11:03:59.557Z,3.80
2019-02-25T11:06:35.167Z,3.72
2019-02-25T11:09:24.200Z,4.53
2019-02-25T11:11:57.341Z,3.70
2019-02-25T11:14:28.154Z,3.30
2019-02-25T11:16:58.831Z,3.47
2019-02-25T11:19:30.781Z,3.40
2019-02-25T11:22:05.364Z,3.47
2019-02-25T11:24:35.893Z,3.83
2019-02-25T11:27:07.306Z,3.35
2019-02-25T11:29:40.003Z,3.67
2019-02-25T11:32:10.839Z,3.80
2019-02-25T11:34:41.448Z,3.85
2019-02-25T11:37:12.073Z,3.27
2019-02-25T11:39:42.665Z,3.25
2019-02-25T11:42:15.613Z,3.87
2019-02-25T11:44:45.592Z,3.70
2019-02-25T11:47:16.261Z,3.90
2019-02-25T11:49:46.888Z,3.60
2019-02-25T11:52:17.582Z,4.12
2019-02-25T11:54:48.156Z,3.50
2019-02-25T11:57:18.801Z,3.65
2019-02-25T11:59:49.496Z,3.90
2019-02-25T12:02:25.686Z,3.87
2019-02-25T12:04:52.415Z,3.72
2019-02-25T12:07:24.181Z,3.65
2019-02-25T12:09:54.890Z,3.42
2019-02-25T12:12:25.678Z,4.05
2019-02-25T12:14:56.244Z,4.03
2019-02-25T12:17:26.827Z,4.10
2019-02-25T12:19:57.369Z,3.90
2019-02-25T12:22:27.956Z,4.03
2019-02-25T12:24:58.517Z,3.87
2019-02-25T12:27:29.152Z,3.70
2019-02-25T12:30:01.534Z,3.60
2019-02-25T12:32:32.143Z,3.42
2019-02-25T12:35:02.800Z,3.45
2019-02-25T12:37:33.402Z,3.65
2019-02-25T12:40:04.498Z,3.47
2019-02-25T12:42:36.978Z,3.55
2019-02-25T12:45:08.046Z,3.87
2019-02-25T12:47:38.838Z,3.60
2019-02-25T12:50:10.593Z,3.50
2019-02-25T12:52:41.209Z,3.35
2019-02-25T12:55:12.458Z,3.33
2019-02-25T12:57:43.198Z,3.60
2019-02-25T13:00:15.055Z,3.40
2019-02-25T13:02:45.666Z,3.62
2019-02-25T13:05:18.546Z,3.40
2019-02-25T13:07:50.664Z,4.50
2019-02-25T13:10:21.214Z,3.98
2019-02-25T13:12:51.917Z,4.15
2019-02-25T13:15:22.464Z,4.70
2019-02-25T13:17:53.055Z,3.98
2019-02-25T13:20:23.820Z,4.00
2019-02-25T13:22:54.418Z,4.30
2019-02-25T13:25:25.055Z,3.95
2019-02-25T13:27:58.287Z,4.33
2019-02-25T13:30:28.109Z,4.75
2019-02-25T13:32:58.691Z,4.60
2019-02-25T13:35:29.247Z,4.45
2019-02-25T13:38:00.268Z,5.47
2019-02-25T13:40:30.902Z,4.78
2019-02-25T13:43:01.498Z,4.65
2019-02-25T13:45:32.109Z,5.20
2019-02-25T13:48:02.712Z,4.92
2019-02-25T13:50:33.475Z,4.60
2019-02-25T13:53:04.117Z,4.95
2019-02-25T13:55:34.701Z,4.62
2019-02-25T13:58:06.066Z,4.53
2019-02-25T14:00:36.757Z,4.53
2019-02-25T14:03:07.355Z,4.97
2019-02-25T14:05:37.914Z,4.85
2019-02-25T14:08:08.535Z,5.10
2019-02-25T14:10:39.091Z,5.17
2019-02-25T14:13:09.696Z,5.25
2019-02-25T14:15:40.264Z,5.10
2019-02-25T14:18:10.840Z,4.97
2019-02-25T14:20:41.732Z,4.60
2019-02-25T14:23:13.629Z,4.72
2019-02-25T14:25:45.973Z,4.37
2019-02-25T14:28:16.668Z,4.97
2019-02-25T14:30:51.386Z,4.90
2019-02-25T14:33:19.873Z,4.28
2019-02-25T14:35:53.155Z,4.58
2019-02-25T14:38:25.023Z,4.50
2019-02-25T14:40:56.774Z,4.55
2019-02-25T14:43:27.952Z,4.67
2019-02-25T14:45:59.487Z,4.62
2019-02-25T14:48:32.814Z,4.45
2019-02-25T14:51:04.182Z,4.37
2019-02-25T14:53:34.927Z,4.45
2019-02-25T14:56:05.477Z,4.20
2019-02-25T14:58:37.727Z,4.25
2019-02-25T15:01:10.050Z,4.33
2019-02-25T15:03:40.657Z,4.22
2019-02-25T15:06:11.416Z,4.53
2019-02-25T15:08:42.262Z,4.60
2019-02-25T15:11:13.125Z,4.30
2019-02-25T15:13:44.196Z,4.62
2019-02-25T15:16:16.278Z,4.75
2019-02-25T15:18:46.908Z,5.08
2019-02-25T15:21:17.490Z,4.65
2019-02-25T15:23:48.087Z,5.45
2019-02-25T15:26:19.913Z,4.85
2019-02-25T15:28:56.040Z,4.20
2019-02-25T15:31:25.488Z,4.03
2019-02-25T15:33:56.044Z,4.70
2019-02-25T15:36:27.480Z,4.30
2019-02-25T15:38:59.076Z,4.80
2019-02-25T15:41:29.637Z,4.75
2019-02-25T15:44:02.365Z,4.80
2019-02-25T15:46:35.392Z,4.60
2019-02-25T15:49:06.270Z,4.50
2019-02-25T15:51:39.030Z,4.75
2019-02-25T15:54:10.715Z,4.15
2019-02-25T15:56:41.447Z,5.37
2019-02-25T15:59:12.132Z,4.70
2019-02-25T16:01:42.818Z,5.00
2019-02-25T16:04:13.574Z,5.15
2019-02-25T16:06:44.191Z,4.95
2019-02-25T16:09:19.269Z,5.05
2019-02-25T16:11:50.473Z,5.08
2019-02-25T16:14:23.521Z,4.65
2019-02-25T16:16:54.917Z,5.67
2019-02-25T16:19:37.258Z,5.20
2019-02-25T16:22:00.595Z,4.87
2019-02-25T16:24:32.477Z,4.90
2019-02-25T16:27:04.631Z,5.20
2019-02-25T16:29:36.314Z,5.47
2019-02-25T16:32:08.693Z,5.08
2019-02-25T16:34:42.559Z,5.25
2019-02-25T16:37:13.307Z,5.05
2019-02-25T16:39:43.970Z,5.08
2019-02-25T16:42:14.568Z,4.87
2019-02-25T16:44:46.489Z,5.03
2019-02-25T16:47:19.614Z,5.95
2019-02-25T16:49:50.376Z,5.53
2019-02-25T16:52:22.782Z,5.80
2019-02-25T16:54:54.109Z,5.50
2019-02-25T16:57:25.132Z,6.05
2019-02-25T16:59:57.603Z,6.42
2019-02-25T17:02:30.207Z,6.30
2019-02-25T17:05:00.811Z,6.40
2019-02-25T17:07:31.478Z,6.12
2019-02-25T17:10:05.723Z,5.65
2019-02-25T17:12:37.059Z,5.95
2019-02-25T17:15:10.524Z,5.33
2019-02-25T17:17:41.271Z,5.47
2019-02-25T17:20:14.603Z,5.70
2019-02-25T17:22:45.463Z,6.33
2019-02-25T17:25:16.818Z,6.37
2019-02-25T17:27:49.014Z,6.30
2019-02-25T17:30:21.944Z,5.40
2019-02-25T17:32:53.535Z,6.70
2019-02-25T17:35:28.185Z,6.62
2019-02-25T17:38:00.833Z,8.08
2019-02-25T17:40:33.588Z,7.87
2019-02-25T17:43:04.489Z,7.05
2019-02-25T17:45:37.315Z,6.62
2019-02-25T17:48:08.909Z,6.12
2019-02-25T17:50:41.554Z,6.70
2019-02-25T17:53:12.244Z,6.08
2019-02-25T17:55:43.004Z,6.67
2019-02-25T17:58:14.849Z,6.80
2019-02-25T18:00:46.093Z,5.92
2019-02-25T18:03:17.629Z,6.75
2019-02-25T18:05:49.143Z,7.15
2019-02-25T18:08:20.123Z,6.40
2019-02-25T18:10:51.973Z,7.45
2019-02-25T18:13:23.672Z,7.03
2019-02-25T18:15:55.808Z,7.05
2019-02-25T18:18:26.663Z,6.17
2019-02-25T18:20:57.271Z,6.45
2019-02-25T18:23:27.874Z,7.37
2019-02-25T18:25:58.843Z,7.28
2019-02-25T18:28:29.531Z,8.50
2019-02-25T18:31:01.762Z,8.08
2019-02-25T18:33:33.022Z,7.90
2019-02-25T18:36:04.570Z,8.55
2019-02-25T18:38:36.558Z,8.70
2019-02-25T18:41:09.120Z,7.80
2019-02-25T18:43:39.678Z,9.67
2019-02-25T18:46:10.301Z,8.80
2019-02-25T18:48:42.898Z,9.53
2019-02-25T18:51:14.611Z,8.30
2019-02-25T18:53:45.529Z,8.07
2019-02-25T18:56:18.380Z,8.23
2019-02-25T18:58:48.787Z,8.27
2019-02-25T19:01:20.064Z,8.13
2019-02-25T19:03:52.619Z,7.92
2019-02-25T19:06:25.445Z,8.07
2019-02-25T19:08:56.599Z,8.90
2019-02-25T19:11:28.332Z,7.83
2019-02-25T19:14:01.828Z,8.13
2019-02-25T19:16:31.615Z,8.70
2019-02-25T19:19:06.414Z,8.20
2019-02-25T19:21:36.551Z,8.53
2019-02-25T19:24:08.147Z,8.40
2019-02-25T19:26:40.849Z,8.58
2019-02-25T19:29:12.556Z,7.60
2019-02-25T19:31:45.044Z,9.07
2019-02-25T19:34:16.358Z,9.27
2019-02-25T19:36:47.167Z,9.17
2019-02-25T19:39:19.763Z,9.83
2019-02-25T19:41:51.356Z,10.30
2019-02-25T19:44:22.552Z,9.97
2019-02-25T19:46:55.691Z,9.43
2019-02-25T19:49:25.781Z,10.50
2019-02-25T19:51:56.444Z,10.23
2019-02-25T19:54:29.346Z,10.37
2019-02-25T19:56:59.448Z,9.67
2019-02-25T19:59:31.233Z,9.70
2019-02-25T20:02:01.887Z,9.63
2019-02-25T20:04:35.515Z,10.23
2019-02-25T20:07:04.963Z,9.90
2019-02-25T20:09:35.532Z,10.13
2019-02-25T20:12:06.500Z,10.07
2019-02-25T20:14:37.387Z,9.50
2019-02-25T20:17:08.242Z,9.90
2019-02-25T20:19:39.623Z,9.23
2019-02-25T20:22:12.440Z,9.40
2019-02-25T20:24:46.080Z,9.37
2019-02-25T20:27:18.065Z,9.13
2019-02-25T20:29:50.900Z,9.50
2019-02-25T20:32:21.499Z,10.27
2019-02-25T20:34:52.880Z,9.90
2019-02-25T20:37:25.160Z,9.77
2019-02-25T20:39:56.952Z,10.43
2019-02-25T20:42:30.623Z,9.20
2019-02-25T20:45:02.665Z,9.87
2019-02-25T20:47:33.829Z,10.13
2019-02-25T20:50:05.548Z,8.63
2019-02-25T20:52:37.932Z,9.13
2019-02-25T20:55:10.884Z,8.47
2019-02-25T20:57:42.428Z,8.73
2019-02-25T21:00:17.811Z,8.30
2019-02-25T21:02:49.040Z,9.13
2019-02-25T21:05:22.800Z,9.47
2019-02-25T21:07:55.019Z,9.07
2019-02-25T21:10:27.890Z,8.43
2019-02-25T21:13:01.448Z,9.10
2019-02-25T21:15:33.362Z,8.63
2019-02-25T21:18:05.312Z,8.50
2019-02-25T21:20:36.606Z,8.80
2019-02-25T21:23:12.009Z,8.67
2019-02-25T21:25:41.499Z,8.80
2019-02-25T21:28:12.132Z,9.00
2019-02-25T21:30:46.150Z,8.63
2019-02-25T21:33:18.039Z,8.67
2019-02-25T21:35:48.762Z,8.80
2019-02-25T21:38:19.986Z,7.87
2019-02-25T21:40:52.719Z,8.67
2019-02-25T21:43:28.466Z,9.10
2019-02-25T21:45:58.724Z,8.77
2019-02-25T21:48:32.417Z,8.83
2019-02-25T21:51:04.741Z,8.70
2019-02-25T21:53:35.119Z,9.00
2019-02-25T21:56:05.801Z,9.03
2019-02-25T21:58:36.537Z,9.00
2019-02-25T22:01:07.125Z,8.70
2019-02-25T22:03:41.284Z,8.93
2019-02-25T22:06:10.180Z,8.53
2019-02-25T22:08:40.919Z,8.77
2019-02-25T22:11:14.951Z,7.83
2019-02-25T22:13:45.807Z,8.40
2019-02-25T22:16:16.416Z,7.43
2019-02-25T22:18:48.287Z,8.77
2019-02-25T22:21:21.194Z,8.77
2019-02-25T22:23:55.969Z,8.23
2019-02-25T22:26:28.763Z,8.40
2019-02-25T22:28:57.970Z,7.93
2019-02-25T22:31:29.043Z,7.40
2019-02-25T22:33:59.758Z,7.23
2019-02-25T22:36:30.446Z,7.60
2019-02-25T22:39:01.920Z,8.27
2019-02-25T22:41:33.581Z,7.97
2019-02-25T22:44:06.139Z,7.33
2019-02-25T22:46:39.642Z,8.37
2019-02-25T22:49:10.683Z,8.13
2019-02-25T22:51:41.434Z,8.10
2019-02-25T22:54:12.553Z,8.67
2019-02-25T22:56:44.567Z,8.07
2019-02-25T22:59:15.123Z,8.60
2019-02-25T23:01:46.037Z,8.10
2019-02-25T23:04:17.311Z,8.13
2019-02-25T23:06:51.262Z,8.10
2019-02-25T23:09:23.362Z,7.67
2019-02-25T23:11:55.510Z,8.17
2019-02-25T23:14:26.185Z,8.10
2019-02-25T23:16:56.866Z,7.90
2019-02-25T23:19:27.440Z,7.30
2019-02-25T23:21:58.018Z,7.43
2019-02-25T23:24:30.439Z,7.60
2019-02-25T23:27:02.371Z,8.13
2019-02-25T23:29:32.918Z,8.03
2019-02-25T23:32:03.502Z,8.23
2019-02-25T23:34:35.947Z,8.07
2019-02-25T23:37:08.384Z,7.50
2019-02-25T23:39:43.127Z,7.90
2019-02-25T23:42:15.725Z,7.87
2019-02-25T23:44:46.279Z,7.13
2019-02-25T23:47:18.313Z,7.97
2019-02-25T23:49:48.881Z,8.47
2019-02-25T23:52:19.494Z,7.30
2019-02-25T23:54:51.873Z,8.27
2019-02-25T23:57:23.856Z,7.60
2019-02-25T23:59:55.743Z,7.07
